createdAt,value
2019-05-28T00:00:01.060Z,26.80
2019-05-28T00:02:20.645Z,26.80
2019-05-28T00:04:51.526Z,26.80
2019-05-28T00:07:22.656Z,26.80
2019-05-28T00:09:53.446Z,26.80
2019-05-28T00:12:24.323Z,26.80
2019-05-28T00:14:55.116Z,26.90
2019-05-28T00:17:26.140Z,27.00
2019-05-28T00:19:56.943Z,27.00
2019-05-28T00:22:27.849Z,27.00
2019-05-28T00:24:58.704Z,27.00
2019-05-28T00:27:29.745Z,27.10
2019-05-28T00:30:00.531Z,27.10
2019-05-28T00:32:31.357Z,27.20
2019-05-28T00:35:02.201Z,27.20
2019-05-28T00:37:32.965Z,27.20
2019-05-28T00:40:03.911Z,27.20
2019-05-28T00:42:35.323Z,27.20
2019-05-28T00:45:07.833Z,27.20
2019-05-28T00:47:38.560Z,27.20
2019-05-28T00:50:09.950Z,27.20
2019-05-28T00:52:40.647Z,27.30
2019-05-28T00:55:11.521Z,27.30
2019-05-28T00:57:44.703Z,27.30
2019-05-28T01:00:16.305Z,27.40
2019-05-28T01:02:47.097Z,27.40
2019-05-28T01:05:18.000Z,27.40
2019-05-28T01:07:48.971Z,27.40
2019-05-28T01:10:19.839Z,27.50
2019-05-28T01:12:50.632Z,27.60
2019-05-28T01:15:21.720Z,27.60
2019-05-28T01:17:52.429Z,27.60
2019-05-28T01:20:23.263Z,27.60
2019-05-28T01:22:54.042Z,27.60
2019-05-28T01:25:24.870Z,27.60
2019-05-28T01:27:56.115Z,27.60
2019-05-28T01:30:26.767Z,27.60
2019-05-28T01:32:57.587Z,27.60
2019-05-28T01:35:28.373Z,27.70
2019-05-28T01:37:59.207Z,27.70
2019-05-28T01:40:30.068Z,27.70
2019-05-28T01:43:01.123Z,27.80
2019-05-28T01:45:31.825Z,27.80
2019-05-28T01:48:02.592Z,27.90
2019-05-28T01:50:33.348Z,27.90
2019-05-28T01:53:04.092Z,27.90
2019-05-28T01:55:34.969Z,27.90
2019-05-28T01:58:05.801Z,28.00
2019-05-28T02:00:36.552Z,28.00
2019-05-28T02:03:07.335Z,28.10
2019-05-28T02:05:38.351Z,28.20
2019-05-28T02:08:09.257Z,28.20
2019-05-28T02:10:40.006Z,28.30
2019-05-28T02:13:10.812Z,28.40
2019-05-28T02:15:41.864Z,28.50
2019-05-28T02:18:12.641Z,28.50
2019-05-28T02:20:43.960Z,28.60
2019-05-28T02:23:14.787Z,28.70
2019-05-28T02:25:45.437Z,28.80
2019-05-28T02:28:16.382Z,28.70
2019-05-28T02:30:47.081Z,28.80
2019-05-28T02:33:17.776Z,28.80
2019-05-28T02:35:49.443Z,28.80
2019-05-28T02:38:20.447Z,28.90
2019-05-28T02:40:51.148Z,28.90
2019-05-28T02:43:22.089Z,28.90
2019-05-28T02:45:52.903Z,29.00
2019-05-28T02:48:23.853Z,29.00
2019-05-28T02:50:57.312Z,29.00
2019-05-28T02:53:28.411Z,29.00
2019-05-28T02:56:00.206Z,29.10
2019-05-28T02:58:33.116Z,29.20
2019-05-28T03:01:04.499Z,29.30
2019-05-28T03:03:35.270Z,29.30
2019-05-28T03:06:07.449Z,29.30
2019-05-28T03:08:46.100Z,29.40
2019-05-28T03:11:11.104Z,29.30
2019-05-28T03:13:42.269Z,29.40
2019-05-28T03:16:13.265Z,29.50
2019-05-28T03:18:44.249Z,29.50
2019-05-28T03:21:15.013Z,29.60
2019-05-28T03:23:45.974Z,29.80
2019-05-28T03:26:16.991Z,29.90
2019-05-28T03:28:47.759Z,30.10
2019-05-28T03:31:18.682Z,30.20
2019-05-28T03:33:49.594Z,30.40
2019-05-28T03:36:20.650Z,30.40
2019-05-28T03:38:51.614Z,30.50
2019-05-28T03:41:22.299Z,30.60
2019-05-28T03:43:52.991Z,30.70
2019-05-28T03:46:23.800Z,30.70
2019-05-28T03:48:54.650Z,30.80
2019-05-28T03:51:25.597Z,30.90
2019-05-28T03:53:56.443Z,31.00
2019-05-28T03:56:27.225Z,31.10
2019-05-28T03:58:58.003Z,31.20
2019-05-28T04:01:28.953Z,31.20
2019-05-28T04:03:59.712Z,31.30
2019-05-28T04:06:30.507Z,31.30
2019-05-28T04:09:01.471Z,31.30
2019-05-28T04:11:44.357Z,31.30
2019-05-28T04:14:04.675Z,31.30
2019-05-28T04:16:36.222Z,31.30
2019-05-28T04:19:07.255Z,31.50
2019-05-28T04:21:39.233Z,31.60
2019-05-28T04:24:10.006Z,31.70
2019-05-28T04:26:40.990Z,31.70
2019-05-28T04:29:11.878Z,31.80
2019-05-28T04:31:46.611Z,31.90
2019-05-28T04:34:17.551Z,31.90
2019-05-28T04:36:51.146Z,31.90
2019-05-28T04:39:21.971Z,32.00
2019-05-28T04:41:52.641Z,32.10
2019-05-28T04:44:23.659Z,32.20
2019-05-28T04:46:54.420Z,32.20
2019-05-28T04:49:25.328Z,32.30
2019-05-28T04:51:56.005Z,32.30
2019-05-28T04:54:26.967Z,32.40
2019-05-28T04:56:57.688Z,32.50
2019-05-28T04:59:28.716Z,32.60
2019-05-28T05:01:59.572Z,32.60
2019-05-28T05:04:30.421Z,32.60
2019-05-28T05:07:01.394Z,32.60
2019-05-28T05:09:32.312Z,32.70
2019-05-28T05:12:03.168Z,32.80
2019-05-28T05:14:33.992Z,32.90
2019-05-28T05:17:04.797Z,33.00
2019-05-28T05:19:35.572Z,33.10
2019-05-28T05:22:06.409Z,33.30
2019-05-28T05:24:37.291Z,33.40
2019-05-28T05:27:07.986Z,33.40
2019-05-28T05:29:38.824Z,33.40
2019-05-28T05:32:09.753Z,33.40
2019-05-28T05:34:40.408Z,33.50
2019-05-28T05:37:11.384Z,33.60
2019-05-28T05:39:42.209Z,33.60
2019-05-28T05:42:13.086Z,33.80
2019-05-28T05:44:43.890Z,33.90
2019-05-28T05:47:14.829Z,34.00
2019-05-28T05:49:45.728Z,34.10
2019-05-28T05:52:16.399Z,34.10
2019-05-28T05:54:47.160Z,34.10
2019-05-28T05:57:18.059Z,34.00
2019-05-28T05:59:48.953Z,33.90
2019-05-28T06:02:19.747Z,33.90
2019-05-28T06:04:50.665Z,33.80
2019-05-28T06:07:21.588Z,33.90
2019-05-28T06:09:52.393Z,33.90
2019-05-28T06:12:23.357Z,33.90
2019-05-28T06:14:54.129Z,33.90
2019-05-28T06:17:25.123Z,33.70
2019-05-28T06:19:55.797Z,33.60
2019-05-28T06:22:26.512Z,33.40
2019-05-28T06:24:57.499Z,33.20
2019-05-28T06:27:28.413Z,33.10
2019-05-28T06:29:59.371Z,32.90
2019-05-28T06:32:33.213Z,32.90
2019-05-28T06:35:02.434Z,32.90
2019-05-28T06:37:33.484Z,32.90
2019-05-28T06:40:04.250Z,33.00
2019-05-28T06:42:39.058Z,33.00
2019-05-28T06:45:09.007Z,32.90
2019-05-28T06:47:44.413Z,32.80
2019-05-28T06:50:12.835Z,32.60
2019-05-28T06:52:44.596Z,32.50
2019-05-28T06:55:16.645Z,32.40
2019-05-28T06:57:47.568Z,32.40
2019-05-28T07:00:18.648Z,32.30
2019-05-28T07:02:49.902Z,32.20
2019-05-28T07:05:20.819Z,32.10
2019-05-28T07:07:51.743Z,32.00
2019-05-28T07:10:22.847Z,31.70
2019-05-28T07:12:53.799Z,31.10
2019-05-28T07:15:24.624Z,30.50
2019-05-28T07:17:59.382Z,29.80
2019-05-28T07:20:27.687Z,29.30
2019-05-28T07:22:59.110Z,29.00
2019-05-28T07:25:29.915Z,28.70
2019-05-28T07:28:11.201Z,28.70
2019-05-28T07:30:32.715Z,28.50
2019-05-28T07:33:04.570Z,28.40
2019-05-28T07:35:45.363Z,28.40
2019-05-28T07:38:08.291Z,28.30
2019-05-28T07:40:39.086Z,28.30
2019-05-28T07:43:09.792Z,28.30
2019-05-28T07:45:41.388Z,28.30
2019-05-28T07:48:12.151Z,28.30
2019-05-28T07:50:43.686Z,28.40
2019-05-28T07:53:14.542Z,28.40
2019-05-28T07:55:45.520Z,28.40
2019-05-28T07:58:16.383Z,28.40
2019-05-28T08:01:06.472Z,28.40
2019-05-28T08:03:37.320Z,28.50
2019-05-28T08:06:08.555Z,28.50
2019-05-28T08:08:39.229Z,28.50
2019-05-28T08:11:09.891Z,28.60
2019-05-28T08:13:41.464Z,28.60
2019-05-28T08:16:18.489Z,28.60
2019-05-28T08:18:44.353Z,28.70
2019-05-28T08:21:15.158Z,28.70
2019-05-28T08:23:45.950Z,28.80
2019-05-28T08:26:16.833Z,28.80
2019-05-28T08:28:47.776Z,28.90
2019-05-28T08:31:21.087Z,28.90
2019-05-28T08:33:50.919Z,28.90
2019-05-28T08:36:21.902Z,29.00
2019-05-28T08:38:52.668Z,29.00
2019-05-28T08:41:23.591Z,29.10
2019-05-28T08:43:54.442Z,29.20
2019-05-28T08:46:25.153Z,29.20
2019-05-28T08:48:56.035Z,29.30
2019-05-28T08:51:26.734Z,29.20
2019-05-28T08:53:57.613Z,29.30
2019-05-28T08:56:28.446Z,29.30
2019-05-28T08:58:59.176Z,29.30
2019-05-28T09:01:30.358Z,29.30
2019-05-28T09:04:01.091Z,29.30
2019-05-28T09:06:31.868Z,29.30
2019-05-28T09:09:02.561Z,29.20
2019-05-28T09:11:33.643Z,29.20
2019-05-28T09:14:04.494Z,29.10
2019-05-28T09:16:35.397Z,29.00
2019-05-28T09:19:09.645Z,29.00
2019-05-28T09:21:38.527Z,28.90
2019-05-28T09:24:09.318Z,29.00
2019-05-28T09:26:40.084Z,28.90
2019-05-28T09:29:10.859Z,28.90
2019-05-28T09:31:41.676Z,28.80
2019-05-28T09:34:12.345Z,28.80
2019-05-28T09:36:43.251Z,28.80
2019-05-28T09:39:13.975Z,28.80
2019-05-28T09:41:44.846Z,28.80
2019-05-28T09:44:15.723Z,28.80
2019-05-28T09:46:46.524Z,28.70
2019-05-28T09:49:17.311Z,28.70
2019-05-28T09:51:48.162Z,28.60
2019-05-28T09:54:19.052Z,28.50
2019-05-28T09:56:50.061Z,28.30
2019-05-28T09:59:20.976Z,28.30
2019-05-28T10:01:51.814Z,28.20
2019-05-28T10:04:22.633Z,28.10
2019-05-28T10:06:53.437Z,28.10
2019-05-28T10:09:24.317Z,28.00
2019-05-28T10:11:56.014Z,27.90
2019-05-28T10:14:26.860Z,27.80
2019-05-28T10:16:57.599Z,27.70
2019-05-28T10:19:30.039Z,27.60
2019-05-28T10:22:00.847Z,27.40
2019-05-28T10:24:32.973Z,27.20
2019-05-28T10:27:03.929Z,27.10
2019-05-28T10:29:34.995Z,27.00
2019-05-28T10:32:05.911Z,26.90
2019-05-28T10:34:37.190Z,26.70
2019-05-28T10:37:08.080Z,26.60
2019-05-28T10:39:39.486Z,26.50
2019-05-28T10:42:10.169Z,26.40
2019-05-28T10:44:44.996Z,26.40
2019-05-28T10:47:13.302Z,26.50
2019-05-28T10:49:44.092Z,26.50
2019-05-28T10:52:14.860Z,26.60
2019-05-28T10:54:45.722Z,26.60
2019-05-28T10:57:16.643Z,26.70
2019-05-28T10:59:47.712Z,26.70
2019-05-28T11:02:18.429Z,26.70
2019-05-28T11:04:49.531Z,26.80
2019-05-28T11:07:20.224Z,26.80
2019-05-28T11:09:51.038Z,26.70
2019-05-28T11:12:21.730Z,26.80
2019-05-28T11:14:52.767Z,26.80
2019-05-28T11:17:24.058Z,26.80
2019-05-28T11:19:54.849Z,26.80
2019-05-28T11:22:25.857Z,26.70
2019-05-28T11:24:56.813Z,26.70
2019-05-28T11:27:27.604Z,26.70
2019-05-28T11:29:58.392Z,26.70
2019-05-28T11:32:29.323Z,26.70
2019-05-28T11:34:59.959Z,26.60
2019-05-28T11:37:30.861Z,26.60
2019-05-28T11:40:01.732Z,26.60
2019-05-28T11:42:32.490Z,26.70
2019-05-28T11:45:04.332Z,26.60
2019-05-28T11:47:35.970Z,26.70
2019-05-28T11:50:09.573Z,26.60
2019-05-28T11:52:40.894Z,26.60
2019-05-28T11:55:14.988Z,26.60
2019-05-28T11:57:45.873Z,26.60
2019-05-28T12:00:17.722Z,26.50
2019-05-28T12:02:48.459Z,26.50
2019-05-28T12:05:19.504Z,26.50
2019-05-28T12:07:51.841Z,26.50
2019-05-28T12:10:22.487Z,26.40
2019-05-28T12:12:53.160Z,26.40
2019-05-28T12:15:24.186Z,26.40
2019-05-28T12:17:54.973Z,26.40
2019-05-28T12:20:25.784Z,26.30
2019-05-28T12:23:10.464Z,26.30
2019-05-28T12:25:28.785Z,26.30
2019-05-28T12:27:59.656Z,26.30
2019-05-28T12:30:31.550Z,26.30
2019-05-28T12:33:02.312Z,26.30
2019-05-28T12:35:33.223Z,26.30
2019-05-28T12:38:30.158Z,26.30
2019-05-28T12:41:01.147Z,26.30
2019-05-28T12:43:32.053Z,26.30
2019-05-28T12:46:04.089Z,26.30
2019-05-28T12:48:34.737Z,26.30
2019-05-28T12:51:08.073Z,26.20
2019-05-28T12:53:49.806Z,26.20
2019-05-28T12:56:11.357Z,26.20
2019-05-28T12:58:43.447Z,26.20
2019-05-28T13:01:14.447Z,26.20
2019-05-28T13:03:45.405Z,26.20
2019-05-28T13:06:16.135Z,26.20
2019-05-28T13:08:47.044Z,26.20
2019-05-28T13:11:20.780Z,26.10
2019-05-28T13:13:51.648Z,26.20
2019-05-28T13:16:22.712Z,26.20
2019-05-28T13:18:53.697Z,26.20
2019-05-28T13:21:24.341Z,26.20
2019-05-28T13:23:55.262Z,26.20
2019-05-28T13:26:27.359Z,26.20
2019-05-28T13:28:58.452Z,26.20
2019-05-28T13:31:29.249Z,26.30
2019-05-28T13:34:00.308Z,26.20
2019-05-28T13:36:31.182Z,26.20
2019-05-28T13:39:01.927Z,26.20
2019-05-28T13:41:32.744Z,26.20
2019-05-28T13:44:03.449Z,26.10
2019-05-28T13:46:34.197Z,26.10
2019-05-28T13:49:05.031Z,26.10
2019-05-28T13:51:35.860Z,26.10
2019-05-28T13:54:06.827Z,26.10
2019-05-28T13:56:37.630Z,26.20
2019-05-28T13:59:08.283Z,26.20
2019-05-28T14:01:39.138Z,26.20
2019-05-28T14:04:09.969Z,26.20
2019-05-28T14:06:44.275Z,26.20
2019-05-28T14:09:13.292Z,26.20
2019-05-28T14:11:46.580Z,26.20
2019-05-28T14:14:16.795Z,26.10
2019-05-28T14:16:47.571Z,26.20
2019-05-28T14:19:18.465Z,26.20
2019-05-28T14:21:49.453Z,26.20
2019-05-28T14:24:20.280Z,26.20
2019-05-28T14:26:50.969Z,26.20
2019-05-28T14:29:24.663Z,26.20
2019-05-28T14:31:55.594Z,26.20
2019-05-28T14:34:26.458Z,26.20
2019-05-28T14:37:00.354Z,26.20
2019-05-28T14:39:40.379Z,26.20
2019-05-28T14:42:03.376Z,26.20
2019-05-28T14:44:34.618Z,26.20
2019-05-28T14:47:06.771Z,26.20
2019-05-28T14:49:37.451Z,26.20
2019-05-28T14:52:08.783Z,26.20
2019-05-28T14:54:40.064Z,26.20
2019-05-28T14:57:11.050Z,26.20
2019-05-28T14:59:41.944Z,26.10
2019-05-28T15:02:12.689Z,26.10
2019-05-28T15:04:43.473Z,26.20
2019-05-28T15:07:14.210Z,26.10
2019-05-28T15:09:47.175Z,26.10
2019-05-28T15:12:18.021Z,27.70
2019-05-28T15:14:48.953Z,26.10
2019-05-28T15:17:19.792Z,26.10
2019-05-28T15:19:50.624Z,26.00
2019-05-28T15:22:21.427Z,26.00
2019-05-28T15:24:52.084Z,26.00
2019-05-28T15:27:22.787Z,26.00
2019-05-28T15:29:53.542Z,25.90
2019-05-28T15:32:24.322Z,26.00
2019-05-28T15:34:55.302Z,25.90
2019-05-28T15:37:26.871Z,25.90
2019-05-28T15:39:57.627Z,26.00
2019-05-28T15:42:28.412Z,25.90
2019-05-28T15:45:00.144Z,25.90
2019-05-28T15:47:31.074Z,25.90
2019-05-28T15:50:01.821Z,26.00
2019-05-28T15:52:32.614Z,26.00
2019-05-28T15:55:03.300Z,26.00
2019-05-28T15:57:34.067Z,26.00
2019-05-28T16:00:06.218Z,26.00
2019-05-28T16:02:37.019Z,26.00
2019-05-28T16:05:08.908Z,26.00
2019-05-28T16:07:39.794Z,26.00
2019-05-28T16:10:10.625Z,26.10
2019-05-28T16:12:41.393Z,26.10
2019-05-28T16:15:12.697Z,26.10
2019-05-28T16:17:43.485Z,26.10
2019-05-28T16:20:14.390Z,26.10
2019-05-28T16:22:45.400Z,26.10
2019-05-28T16:25:16.363Z,26.10
2019-05-28T16:27:47.134Z,26.10
2019-05-28T16:30:17.915Z,26.10
2019-05-28T16:32:48.783Z,26.10
2019-05-28T16:35:21.550Z,26.10
2019-05-28T16:37:52.336Z,26.00
2019-05-28T16:40:24.402Z,26.10
2019-05-28T16:42:55.286Z,26.00
2019-05-28T16:45:27.970Z,26.00
2019-05-28T16:47:59.697Z,26.00
2019-05-28T16:50:36.026Z,26.00
2019-05-28T16:53:06.904Z,26.00
2019-05-28T16:55:41.676Z,26.00
2019-05-28T16:58:10.534Z,26.00
2019-05-28T17:00:41.377Z,26.00
2019-05-28T17:03:12.113Z,26.00
2019-05-28T17:05:42.903Z,26.00
2019-05-28T17:08:13.680Z,26.00
2019-05-28T17:10:44.841Z,26.00
2019-05-28T17:13:15.667Z,26.00
2019-05-28T17:15:46.557Z,25.90
2019-05-28T17:18:17.325Z,25.90
2019-05-28T17:20:48.122Z,25.90
2019-05-28T17:23:18.794Z,25.90
2019-05-28T17:25:49.569Z,25.90
2019-05-28T17:28:20.377Z,25.90
2019-05-28T17:30:54.203Z,25.90
2019-05-28T17:33:25.225Z,25.90
2019-05-28T17:35:58.927Z,25.90
2019-05-28T17:38:30.074Z,25.90
2019-05-28T17:41:01.418Z,25.80
2019-05-28T17:43:32.232Z,25.90
2019-05-28T17:46:03.089Z,25.90
2019-05-28T17:48:33.902Z,25.90
2019-05-28T17:51:04.682Z,25.90
2019-05-28T17:53:35.351Z,25.90
2019-05-28T17:56:08.052Z,25.90
2019-05-28T17:58:38.368Z,25.90
2019-05-28T18:01:09.318Z,25.90
2019-05-28T18:03:40.124Z,25.90
2019-05-28T18:06:10.937Z,25.90
2019-05-28T18:08:41.592Z,25.90
2019-05-28T18:11:12.491Z,25.90
2019-05-28T18:13:43.413Z,25.90
2019-05-28T18:16:14.166Z,25.90
2019-05-28T18:18:45.068Z,25.90
2019-05-28T18:21:15.945Z,25.90
2019-05-28T18:23:48.101Z,25.90
2019-05-28T18:26:18.931Z,25.90
2019-05-28T18:28:49.696Z,25.90
2019-05-28T18:31:20.515Z,25.90
2019-05-28T18:33:51.397Z,25.90
2019-05-28T18:36:22.053Z,25.90
2019-05-28T18:38:52.906Z,25.90
2019-05-28T18:41:23.689Z,25.90
2019-05-28T18:43:54.683Z,25.90
2019-05-28T18:46:25.474Z,25.80
2019-05-28T18:48:56.378Z,25.80
2019-05-28T18:51:27.403Z,25.90
2019-05-28T18:53:58.540Z,25.90
2019-05-28T18:56:29.328Z,25.90
2019-05-28T18:59:00.191Z,25.80
2019-05-28T19:01:30.960Z,25.90
2019-05-28T19:04:01.924Z,25.90
2019-05-28T19:06:32.964Z,25.90
2019-05-28T19:09:03.741Z,25.90
2019-05-28T19:11:37.833Z,25.90
2019-05-28T19:14:06.875Z,25.80
2019-05-28T19:16:37.820Z,25.80
2019-05-28T19:19:08.557Z,25.70
2019-05-28T19:21:39.558Z,25.70
2019-05-28T19:24:10.336Z,25.70
2019-05-28T19:26:41.211Z,25.70
2019-05-28T19:29:11.989Z,25.60
2019-05-28T19:31:42.656Z,25.60
2019-05-28T19:34:13.514Z,25.60
2019-05-28T19:36:45.085Z,25.60
2019-05-28T19:39:15.968Z,25.60
2019-05-28T19:41:54.198Z,25.70
2019-05-28T19:44:19.089Z,25.70
2019-05-28T19:46:49.991Z,25.70
2019-05-28T19:49:20.751Z,25.70
2019-05-28T19:51:51.647Z,25.70
2019-05-28T19:54:22.534Z,25.60
2019-05-28T19:56:53.327Z,25.70
2019-05-28T19:59:24.126Z,25.70
2019-05-28T20:01:54.839Z,25.70
2019-05-28T20:04:25.588Z,25.70
2019-05-28T20:06:56.643Z,25.70
2019-05-28T20:09:27.590Z,25.80
2019-05-28T20:12:11.549Z,25.70
2019-05-28T20:14:30.431Z,25.70
2019-05-28T20:17:01.114Z,25.70
2019-05-28T20:19:35.104Z,25.70
2019-05-28T20:22:04.044Z,25.70
2019-05-28T20:24:34.692Z,25.70
2019-05-28T20:27:05.460Z,25.70
2019-05-28T20:29:36.142Z,25.70
2019-05-28T20:32:07.292Z,25.70
2019-05-28T20:34:38.203Z,25.70
2019-05-28T20:37:09.986Z,25.70
2019-05-28T20:39:40.988Z,25.70
2019-05-28T20:42:24.421Z,25.70
2019-05-28T20:44:43.984Z,25.70
2019-05-28T20:47:14.626Z,25.70
2019-05-28T20:49:45.425Z,25.70
2019-05-28T20:52:16.293Z,25.70
2019-05-28T20:54:46.939Z,25.70
2019-05-28T20:57:17.644Z,25.70
2019-05-28T20:59:49.403Z,25.70
2019-05-28T21:02:20.303Z,25.70
2019-05-28T21:04:52.316Z,25.60
2019-05-28T21:07:23.178Z,25.70
2019-05-28T21:09:54.547Z,25.60
2019-05-28T21:12:25.437Z,25.60
2019-05-28T21:14:56.895Z,25.60
2019-05-28T21:17:27.777Z,25.60
2019-05-28T21:19:59.425Z,25.60
2019-05-28T21:22:30.455Z,25.60
2019-05-28T21:25:01.132Z,25.70
2019-05-28T21:27:31.798Z,25.60
2019-05-28T21:30:02.495Z,25.70
2019-05-28T21:32:33.201Z,25.70
2019-05-28T21:35:03.918Z,25.70
2019-05-28T21:37:34.692Z,25.70
2019-05-28T21:40:06.364Z,25.70
2019-05-28T21:42:37.408Z,25.70
2019-05-28T21:45:08.648Z,25.70
2019-05-28T21:47:39.467Z,25.70
2019-05-28T21:50:10.520Z,25.70
2019-05-28T21:52:41.270Z,25.70
2019-05-28T21:55:12.433Z,25.70
2019-05-28T21:57:43.227Z,25.70
2019-05-28T22:00:17.508Z,25.70
2019-05-28T22:02:48.292Z,25.60
2019-05-28T22:05:19.170Z,25.60
2019-05-28T22:07:50.086Z,25.60
2019-05-28T22:10:20.954Z,25.60
2019-05-28T22:12:51.762Z,25.60
2019-05-28T22:15:22.752Z,25.60
2019-05-28T22:17:53.633Z,25.60
2019-05-28T22:20:24.571Z,25.60
2019-05-28T22:22:56.240Z,25.60
2019-05-28T22:25:27.143Z,25.60
2019-05-28T22:27:58.509Z,25.60
2019-05-28T22:30:29.412Z,25.60
2019-05-28T22:33:00.278Z,25.60
2019-05-28T22:35:31.101Z,25.70
2019-05-28T22:38:01.882Z,25.70
2019-05-28T22:40:32.750Z,25.60
2019-05-28T22:43:03.572Z,25.70
2019-05-28T22:45:37.814Z,25.70
2019-05-28T22:48:13.722Z,25.60
2019-05-28T22:50:38.871Z,25.60
2019-05-28T22:53:09.559Z,25.60
2019-05-28T22:55:40.209Z,25.60
2019-05-28T22:58:11.269Z,25.60
2019-05-28T23:00:41.964Z,25.70
2019-05-28T23:03:12.773Z,25.70
2019-05-28T23:05:43.557Z,25.70
2019-05-28T23:08:33.333Z,25.70
2019-05-28T23:11:05.347Z,25.70
2019-05-28T23:13:46.313Z,25.70
2019-05-28T23:16:08.636Z,25.70
2019-05-28T23:18:39.792Z,25.70
2019-05-28T23:21:11.036Z,25.70
2019-05-28T23:23:41.840Z,25.70
2019-05-28T23:26:12.912Z,25.70
2019-05-28T23:28:43.799Z,25.80
2019-05-28T23:31:14.759Z,25.70
2019-05-28T23:33:45.599Z,25.70
2019-05-28T23:36:16.549Z,25.80
2019-05-28T23:38:47.221Z,25.80
2019-05-28T23:41:17.934Z,25.80
2019-05-28T23:44:01.140Z,25.80
2019-05-28T23:46:21.051Z,25.80
2019-05-28T23:48:52.043Z,25.80
2019-05-28T23:51:22.817Z,25.90
2019-05-28T23:53:53.721Z,25.90
2019-05-28T23:56:43.904Z,25.90
2019-05-28T23:59:14.705Z,25.90
